createdAt,value
2023-03-22T00:01:10.179Z,100209.41
2023-03-22T00:03:36.980Z,100204.22
2023-03-22T00:06:03.657Z,100211.28
2023-03-22T00:08:30.309Z,100202.84
2023-03-22T00:10:56.889Z,100207.78
2023-03-22T00:13:33.381Z,100210.31
2023-03-22T00:16:02.798Z,100213.56
2023-03-22T00:18:29.460Z,100209.53
2023-03-22T00:20:57.303Z,100207.53
2023-03-22T00:23:24.442Z,100203.97
2023-03-22T00:25:51.342Z,100197.63
2023-03-22T00:28:18.304Z,100194.97
2023-03-22T00:30:58.638Z,100195.16
2023-03-22T00:33:27.306Z,100194.44
2023-03-22T00:35:59.494Z,100196.25
2023-03-22T00:38:41.255Z,100191.41
2023-03-22T00:41:09.769Z,100187.44
2023-03-22T00:43:37.225Z,100188.47
2023-03-22T00:46:04.029Z,100192.72
2023-03-22T00:48:31.454Z,100186.69
2023-03-22T00:50:58.259Z,100192.72
2023-03-22T00:53:24.933Z,100195.22
2023-03-22T00:55:51.730Z,100188.41
2023-03-22T00:58:18.682Z,100185.41
2023-03-22T01:00:45.680Z,100182.69
2023-03-22T01:03:14.247Z,100181.28
2023-03-22T01:05:45.262Z,100176.41
2023-03-22T01:08:14.894Z,100173.56
2023-03-22T01:10:42.323Z,100176.75
2023-03-22T01:13:09.876Z,100170.97
2023-03-22T01:15:36.981Z,100166.19
2023-03-22T01:18:04.102Z,100165.13
2023-03-22T01:20:31.956Z,100164.28
2023-03-22T01:22:58.901Z,100162.75
2023-03-22T01:25:25.805Z,100159.69
2023-03-22T01:27:55.581Z,100153.63
2023-03-22T01:30:22.199Z,100163.69
2023-03-22T01:32:49.264Z,100161.94
2023-03-22T01:35:17.473Z,100152.63
2023-03-22T01:37:44.123Z,100158.63
2023-03-22T01:40:13.211Z,100162.03
2023-03-22T01:42:40.264Z,100164.19
2023-03-22T01:45:15.513Z,100155.84
2023-03-22T01:47:47.696Z,100157.56
2023-03-22T01:50:14.774Z,100149.34
2023-03-22T01:52:44.094Z,100149.00
2023-03-22T01:55:18.373Z,100143.28
2023-03-22T01:57:46.985Z,100143.72
2023-03-22T02:00:19.039Z,100144.13
2023-03-22T02:03:06.229Z,100145.47
2023-03-22T02:05:42.212Z,100136.31
2023-03-22T02:08:09.000Z,100134.28
2023-03-22T02:10:55.057Z,100133.44
2023-03-22T02:13:34.906Z,100133.50
2023-03-22T02:16:53.264Z,100127.44
2023-03-22T02:19:19.832Z,100125.88
2023-03-22T02:21:49.530Z,100116.72
2023-03-22T02:24:29.775Z,100127.72
2023-03-22T02:27:09.184Z,100126.28
2023-03-22T02:29:45.286Z,100120.59
2023-03-22T02:32:12.386Z,100110.78
2023-03-22T02:34:57.891Z,100107.59
2023-03-22T02:37:37.185Z,100117.00
2023-03-22T02:40:11.562Z,100119.03
2023-03-22T02:42:43.886Z,100122.94
2023-03-22T02:45:13.617Z,100113.13
2023-03-22T02:47:43.405Z,100112.88
2023-03-22T02:50:14.069Z,100115.84
2023-03-22T02:52:40.701Z,100109.47
2023-03-22T02:55:09.985Z,100114.53
2023-03-22T02:57:36.600Z,100111.44
2023-03-22T03:00:08.785Z,100118.03
2023-03-22T03:02:36.863Z,100111.72
2023-03-22T03:05:03.918Z,100108.28
2023-03-22T03:07:31.190Z,100105.16
2023-03-22T03:09:58.409Z,100105.44
2023-03-22T03:12:28.667Z,100107.84
2023-03-22T03:14:56.999Z,100102.31
2023-03-22T03:17:42.405Z,100102.94
2023-03-22T03:20:30.847Z,100103.16
2023-03-22T03:23:14.644Z,100111.03
2023-03-22T03:25:48.959Z,100110.03
2023-03-22T03:28:30.205Z,100103.88
2023-03-22T03:31:03.865Z,100111.28
2023-03-22T03:33:32.941Z,100102.31
2023-03-22T03:36:06.804Z,100107.47
2023-03-22T03:38:44.964Z,100099.72
2023-03-22T03:41:14.490Z,100094.31
2023-03-22T03:43:42.504Z,100089.59
2023-03-22T03:46:09.591Z,100089.91
2023-03-22T03:48:37.515Z,100089.81
2023-03-22T03:51:04.532Z,100095.59
2023-03-22T03:53:31.528Z,100084.19
2023-03-22T03:56:00.355Z,100087.47
2023-03-22T03:58:33.891Z,100084.50
2023-03-22T04:01:03.086Z,100084.31
2023-03-22T04:04:01.284Z,100073.91
2023-03-22T04:06:27.965Z,100081.88
2023-03-22T04:09:01.819Z,100077.91
2023-03-22T04:11:32.413Z,100069.47
2023-03-22T04:14:01.822Z,100070.06
2023-03-22T04:16:32.255Z,100064.31
2023-03-22T04:18:59.030Z,100065.88
2023-03-22T04:21:25.646Z,100057.44
2023-03-22T04:23:58.039Z,100060.03
2023-03-22T04:26:29.439Z,100058.19
2023-03-22T04:29:22.076Z,100060.88
2023-03-22T04:31:53.564Z,100063.91
2023-03-22T04:34:28.610Z,100061.91
2023-03-22T04:37:06.210Z,100062.34
2023-03-22T04:39:36.334Z,100055.19
2023-03-22T04:42:21.735Z,100050.91
2023-03-22T04:44:58.470Z,100046.19
2023-03-22T04:47:25.325Z,100052.75
2023-03-22T04:49:52.224Z,100055.75
2023-03-22T04:52:18.988Z,100053.19
2023-03-22T04:54:52.185Z,100054.28
2023-03-22T04:57:18.893Z,100047.84
2023-03-22T04:59:48.107Z,100052.31
2023-03-22T05:02:14.725Z,100051.25
2023-03-22T05:04:43.422Z,100048.47
2023-03-22T05:07:23.953Z,100048.75
2023-03-22T05:09:56.640Z,100059.31
2023-03-22T05:12:23.936Z,100051.25
2023-03-22T05:14:56.026Z,100051.19
2023-03-22T05:17:29.823Z,100048.75
2023-03-22T05:19:58.011Z,100051.47
2023-03-22T05:22:25.192Z,100053.13
2023-03-22T05:24:54.042Z,100055.03
2023-03-22T05:27:31.373Z,100060.31
2023-03-22T05:30:07.467Z,100056.03
2023-03-22T05:32:47.544Z,100057.94
2023-03-22T05:35:14.282Z,100062.03
2023-03-22T05:38:10.821Z,100067.31
2023-03-22T05:40:42.349Z,100061.88
2023-03-22T05:43:08.979Z,100058.19
2023-03-22T05:45:38.000Z,100056.53
2023-03-22T05:48:13.158Z,100056.75
2023-03-22T05:50:40.620Z,100057.56
2023-03-22T05:53:07.719Z,100044.78
2023-03-22T05:56:00.758Z,100049.56
2023-03-22T05:58:31.315Z,100047.63
2023-03-22T06:01:01.113Z,100057.91
2023-03-22T06:03:46.277Z,100051.03
2023-03-22T06:06:22.207Z,100051.75
2023-03-22T06:09:10.681Z,100043.63
2023-03-22T06:11:42.847Z,100048.81
2023-03-22T06:14:09.517Z,100039.41
2023-03-22T06:16:53.103Z,100053.31
2023-03-22T06:19:22.479Z,100042.03
2023-03-22T06:21:49.150Z,100057.72
2023-03-22T06:24:17.511Z,100044.19
2023-03-22T06:26:45.650Z,100048.88
2023-03-22T06:29:13.912Z,100044.19
2023-03-22T06:31:40.667Z,100037.69
2023-03-22T06:34:08.333Z,100050.44
2023-03-22T06:36:42.404Z,100041.31
2023-03-22T06:39:15.569Z,100042.63
2023-03-22T06:41:44.356Z,100043.81
2023-03-22T06:44:11.445Z,100041.75
2023-03-22T06:46:50.134Z,100042.97
2023-03-22T06:49:34.031Z,100046.16
2023-03-22T06:52:00.784Z,100041.13
2023-03-22T06:54:28.011Z,100050.25
2023-03-22T06:56:54.718Z,100038.94
2023-03-22T06:59:24.365Z,100045.63
2023-03-22T07:01:51.040Z,100044.00
2023-03-22T07:04:17.817Z,100043.13
2023-03-22T07:06:48.819Z,100036.31
2023-03-22T07:09:15.902Z,100037.56
2023-03-22T07:11:42.844Z,100037.88
2023-03-22T07:14:09.622Z,100034.41
2023-03-22T07:17:05.043Z,100038.88
2023-03-22T07:19:34.853Z,100029.34
2023-03-22T07:22:06.616Z,100031.66
2023-03-22T07:24:33.795Z,100026.94
2023-03-22T07:27:02.221Z,100025.16
2023-03-22T07:29:29.441Z,100017.44
2023-03-22T07:31:56.898Z,100007.13
2023-03-22T07:34:42.602Z,100009.91
2023-03-22T07:37:15.146Z,100015.69
2023-03-22T07:39:42.100Z,100012.47
2023-03-22T07:42:09.617Z,100008.56
2023-03-22T07:44:56.662Z,100003.28
2023-03-22T07:47:39.470Z,100004.81
2023-03-22T07:50:19.561Z,100009.69
2023-03-22T07:52:53.436Z,99999.59
2023-03-22T07:55:20.093Z,99996.09
2023-03-22T07:57:46.803Z,100004.31
2023-03-22T08:00:13.949Z,99993.72
2023-03-22T08:02:47.103Z,99988.13
2023-03-22T08:05:30.932Z,99982.31
2023-03-22T08:08:01.382Z,99991.97
2023-03-22T08:10:28.217Z,99994.13
2023-03-22T08:12:55.448Z,99995.72
2023-03-22T08:15:25.499Z,99991.53
2023-03-22T08:17:53.029Z,99993.84
2023-03-22T08:20:47.259Z,99990.13
2023-03-22T12:53:50.598Z,99827.75
2023-03-22T13:00:23.306Z,99829.16
2023-03-22T13:24:06.613Z,99804.38
2023-03-22T13:27:26.691Z,99795.03
2023-03-22T13:46:21.103Z,99794.38
